createdAt,value
2022-10-21T00:00:14.631Z,23.70
2022-10-21T00:02:42.844Z,24.30
2022-10-21T00:05:11.228Z,24.87
2022-10-21T00:07:39.378Z,24.90
2022-10-21T00:10:10.981Z,25.30
2022-10-21T00:12:39.501Z,25.50
2022-10-21T00:15:11.097Z,24.60
2022-10-21T00:17:41.250Z,25.43
2022-10-21T00:20:12.332Z,24.73
2022-10-21T00:22:40.921Z,25.77
2022-10-21T00:25:10.369Z,24.80
2022-10-21T00:27:39.266Z,24.97
2022-10-21T00:30:12.656Z,25.93
2022-10-21T00:32:41.095Z,25.27
2022-10-21T00:35:09.572Z,25.10
2022-10-21T00:37:38.083Z,25.33
2022-10-21T00:40:07.221Z,25.73
2022-10-21T00:42:46.386Z,16.37
2022-10-21T00:45:22.253Z,24.27
2022-10-21T00:47:56.987Z,25.97
2022-10-21T00:50:32.880Z,26.73
2022-10-21T00:53:06.095Z,24.97
2022-10-21T00:55:43.560Z,25.07
2022-10-21T01:01:16.636Z,24.60
2022-10-21T01:03:48.346Z,25.43
2022-10-21T01:06:22.120Z,25.03
2022-10-21T01:08:51.178Z,26.27
2022-10-21T01:11:21.037Z,24.43
2022-10-21T01:14:09.912Z,26.47
2022-10-21T01:16:49.225Z,26.17
2022-10-21T01:19:34.521Z,24.90
2022-10-21T01:22:09.284Z,24.67
2022-10-21T01:24:59.267Z,26.13
2022-10-21T01:27:43.566Z,24.90
2022-10-21T01:30:37.348Z,24.17
2022-10-21T01:33:26.012Z,25.33
2022-10-21T01:35:59.696Z,25.67
2022-10-21T01:38:35.558Z,27.03
2022-10-21T01:41:10.227Z,25.40
2022-10-21T01:43:44.536Z,24.80
2022-10-21T01:46:20.829Z,25.27
2022-10-21T01:48:53.894Z,25.60
2022-10-21T01:53:56.413Z,25.60
2022-10-21T01:56:25.207Z,25.33
2022-10-21T01:58:54.923Z,24.10
2022-10-21T02:01:25.667Z,24.87
2022-10-21T02:04:00.217Z,24.03
2022-10-21T02:06:30.430Z,24.10
2022-10-21T02:08:58.816Z,23.97
2022-10-21T02:11:37.084Z,24.00
2022-10-21T02:14:09.539Z,24.77
2022-10-21T02:16:41.151Z,24.27
2022-10-21T02:19:14.881Z,24.67
2022-10-21T02:21:44.215Z,24.23
2022-10-21T02:24:17.621Z,24.27
2022-10-21T02:26:45.792Z,22.97
2022-10-21T02:29:15.141Z,23.93
2022-10-21T02:32:10.606Z,25.37
2022-10-21T02:34:51.779Z,24.80
2022-10-21T02:37:28.604Z,24.53
2022-10-21T02:40:05.542Z,26.07
2022-10-21T02:42:38.992Z,25.30
2022-10-21T02:45:08.398Z,24.13
2022-10-21T02:47:39.857Z,28.00
2022-10-21T02:50:09.142Z,24.33
2022-10-21T02:52:37.385Z,23.70
2022-10-21T02:55:06.152Z,25.43
2022-10-21T02:57:34.427Z,26.17
2022-10-21T03:00:13.570Z,24.33
2022-10-21T03:02:43.318Z,27.07
2022-10-21T03:05:13.030Z,27.13
2022-10-21T03:07:43.580Z,25.37
2022-10-21T03:10:11.807Z,24.67
2022-10-21T03:12:40.055Z,25.20
2022-10-21T03:15:09.137Z,25.97
2022-10-21T03:17:37.646Z,25.03
2022-10-21T03:20:13.488Z,25.33
2022-10-21T03:22:41.698Z,26.10
2022-10-21T03:25:10.667Z,25.50
2022-10-21T03:27:38.851Z,26.00
2022-10-21T03:30:08.870Z,26.03
2022-10-21T03:32:37.349Z,26.40
2022-10-21T03:35:08.217Z,26.30
2022-10-21T03:37:36.613Z,27.30
2022-10-21T03:40:08.541Z,26.70
2022-10-21T03:42:39.978Z,26.87
2022-10-21T03:45:09.288Z,27.63
2022-10-21T03:47:39.871Z,27.93
2022-10-21T03:50:13.970Z,26.00
2022-10-21T03:52:48.254Z,27.17
2022-10-21T03:55:17.210Z,27.97
2022-10-21T03:57:45.337Z,27.23
2022-10-21T04:00:15.111Z,27.50
2022-10-21T04:02:43.762Z,26.80
2022-10-21T04:05:13.476Z,27.73
2022-10-21T04:07:50.613Z,28.87
2022-10-21T04:10:21.664Z,26.20
2022-10-21T04:12:49.717Z,27.40
2022-10-21T04:15:25.799Z,25.63
2022-10-21T04:17:53.937Z,25.73
2022-10-21T04:20:23.619Z,28.07
2022-10-21T04:22:51.669Z,27.80
2022-10-21T04:25:19.857Z,27.03
2022-10-21T04:27:50.258Z,27.37
2022-10-21T04:30:18.583Z,28.40
2022-10-21T04:32:47.194Z,26.30
2022-10-21T04:35:15.309Z,28.47
2022-10-21T04:37:45.148Z,26.57
2022-10-21T04:40:19.939Z,25.57
2022-10-21T04:43:13.248Z,25.67
2022-10-21T04:45:44.274Z,27.00
2022-10-21T04:48:15.792Z,26.80
2022-10-21T04:50:43.945Z,25.50
2022-10-21T04:53:13.487Z,25.60
2022-10-21T04:55:45.757Z,27.60
2022-10-21T04:58:16.157Z,26.20
2022-10-21T05:00:46.702Z,26.50
2022-10-21T05:03:15.047Z,27.80
2022-10-21T05:05:43.234Z,27.17
2022-10-21T05:08:11.770Z,27.17
2022-10-21T05:10:43.946Z,27.07
2022-10-21T05:13:12.163Z,27.87
2022-10-21T05:15:40.310Z,24.80
2022-10-21T05:18:08.560Z,26.83
2022-10-21T05:20:36.668Z,26.70
2022-10-21T05:23:08.568Z,26.97
2022-10-21T05:25:47.147Z,29.07
2022-10-21T05:28:17.760Z,27.10
2022-10-21T05:30:50.165Z,26.83
2022-10-21T05:33:18.300Z,29.37
2022-10-21T05:35:57.762Z,27.30
2022-10-21T05:38:25.938Z,27.00
2022-10-21T05:40:56.468Z,26.80
2022-10-21T05:43:28.033Z,28.33
2022-10-21T05:45:59.070Z,27.33
2022-10-21T05:48:33.332Z,26.23
2022-10-21T05:51:04.778Z,28.23
2022-10-21T05:53:36.495Z,27.47
2022-10-21T05:56:13.345Z,26.60
2022-10-21T05:58:41.500Z,28.47
2022-10-21T06:01:14.433Z,28.27
2022-10-21T06:03:42.582Z,27.83
2022-10-21T06:06:10.794Z,27.70
2022-10-21T06:08:40.181Z,26.97
2022-10-21T06:11:11.480Z,29.17
2022-10-21T06:13:40.529Z,26.50
2022-10-21T06:16:09.886Z,28.57
2022-10-21T06:18:38.517Z,27.07
2022-10-21T06:21:07.496Z,28.30
2022-10-21T06:23:36.306Z,27.43
2022-10-21T06:26:10.304Z,29.23
2022-10-21T06:29:08.919Z,26.97
2022-10-21T06:31:39.270Z,27.93
2022-10-21T06:34:07.375Z,28.10
2022-10-21T06:36:38.074Z,14.60
2022-10-21T06:39:13.203Z,17.13
2022-10-21T06:41:42.766Z,21.90
2022-10-21T06:44:16.619Z,28.50
2022-10-21T06:46:44.796Z,27.83
2022-10-21T06:49:15.062Z,28.57
2022-10-21T06:51:45.522Z,26.47
2022-10-21T06:54:13.607Z,28.60
2022-10-21T06:57:07.639Z,27.03
2022-10-21T06:59:52.976Z,25.40
2022-10-21T07:02:25.219Z,26.30
2022-10-21T07:04:53.552Z,26.93
2022-10-21T07:07:21.710Z,25.17
2022-10-21T07:09:49.843Z,25.00
2022-10-21T07:12:22.434Z,25.97
2022-10-21T07:14:55.424Z,26.87
2022-10-21T07:17:23.695Z,26.30
2022-10-21T07:22:46.423Z,24.53
2022-10-21T07:25:14.472Z,24.00
2022-10-21T07:27:48.331Z,24.93
2022-10-21T07:33:43.431Z,25.30
2022-10-21T07:36:16.497Z,24.30
2022-10-21T07:39:11.958Z,26.10
2022-10-21T07:41:48.569Z,14.13
2022-10-21T07:44:24.658Z,14.63
2022-10-21T07:46:53.569Z,13.70
2022-10-21T07:49:30.328Z,15.97
2022-10-21T07:51:59.459Z,25.20
2022-10-21T07:54:30.353Z,24.20
2022-10-21T07:57:23.863Z,24.83
2022-10-21T08:00:01.390Z,26.23
2022-10-21T08:02:31.993Z,25.93
2022-10-21T08:05:03.041Z,25.10
2022-10-21T08:07:32.440Z,24.73
2022-10-21T08:10:01.063Z,24.47
2022-10-21T08:12:29.218Z,24.87
2022-10-21T08:18:28.370Z,24.97
2022-10-21T08:20:56.827Z,24.00
2022-10-21T08:23:27.324Z,25.33
2022-10-21T08:25:57.808Z,24.53
2022-10-21T08:28:27.038Z,24.57
2022-10-21T08:31:03.845Z,24.07
2022-10-21T08:33:32.493Z,24.93
2022-10-21T08:36:00.607Z,25.00
2022-10-21T08:38:28.621Z,23.27
2022-10-21T08:41:00.886Z,26.37
2022-10-21T08:43:31.641Z,24.80
2022-10-21T08:46:05.418Z,25.07
2022-10-21T08:48:43.888Z,25.60
2022-10-21T08:51:23.999Z,24.43
2022-10-21T08:53:56.207Z,25.10
2022-10-21T08:56:26.109Z,24.60
2022-10-21T08:58:54.398Z,24.33
2022-10-21T09:04:34.738Z,24.17
2022-10-21T09:07:16.806Z,25.57
2022-10-21T09:09:55.799Z,16.93
2022-10-21T09:12:35.000Z,25.87
2022-10-21T09:15:16.017Z,25.67
2022-10-21T09:18:33.513Z,23.97
2022-10-21T09:21:07.641Z,25.33
2022-10-21T09:23:48.420Z,24.93
2022-10-21T09:26:33.331Z,24.83
2022-10-21T09:29:31.975Z,24.50
2022-10-21T09:32:13.600Z,23.77
2022-10-21T09:34:53.329Z,22.73
2022-10-21T09:37:31.757Z,25.33
2022-10-21T09:40:25.072Z,24.17
2022-10-21T09:42:56.021Z,25.40
2022-10-21T09:45:37.799Z,24.60
2022-10-21T09:48:16.752Z,24.90
2022-10-21T09:50:47.752Z,25.63
2022-10-21T09:53:26.352Z,25.83
2022-10-21T09:56:01.908Z,24.23
2022-10-21T09:58:44.599Z,24.40
2022-10-21T10:01:18.727Z,25.37
2022-10-21T10:04:03.132Z,24.77
2022-10-21T10:06:37.099Z,26.30
2022-10-21T10:09:17.358Z,24.20
2022-10-21T10:11:55.473Z,25.80
2022-10-21T10:14:34.143Z,24.70
2022-10-21T10:17:41.578Z,25.17
2022-10-21T10:20:23.833Z,25.37
2022-10-21T10:23:17.736Z,23.73
2022-10-21T10:25:51.635Z,24.47
2022-10-21T10:28:27.145Z,24.23
2022-10-21T10:31:00.316Z,24.50
2022-10-21T10:33:41.366Z,24.40
2022-10-21T10:36:11.959Z,24.13
2022-10-21T10:39:00.641Z,25.20
2022-10-21T10:41:47.079Z,24.93
2022-10-21T10:44:32.550Z,24.50
2022-10-21T10:47:13.880Z,23.90
2022-10-21T10:49:47.005Z,24.20
2022-10-21T10:52:22.615Z,25.23
2022-10-21T10:55:19.990Z,25.30
2022-10-21T10:58:06.147Z,25.93
2022-10-21T11:00:44.846Z,25.80
2022-10-21T11:03:23.898Z,24.90
2022-10-21T11:06:00.637Z,26.30
2022-10-21T11:08:34.131Z,28.00
2022-10-21T11:11:16.219Z,26.20
2022-10-21T11:13:47.261Z,27.63
2022-10-21T11:16:59.034Z,26.97
2022-10-21T11:19:55.365Z,25.40
2022-10-21T11:22:40.684Z,26.67
2022-10-21T11:25:24.784Z,27.60
2022-10-21T11:28:17.672Z,29.17
2022-10-21T11:31:09.502Z,28.00
2022-10-21T11:34:02.793Z,27.90
2022-10-21T11:36:42.543Z,28.53
2022-10-21T11:39:47.308Z,28.23
2022-10-21T11:42:28.881Z,27.10
2022-10-21T11:45:22.090Z,28.13
2022-10-21T11:48:01.139Z,28.43
2022-10-21T11:50:43.207Z,28.07
2022-10-21T11:53:35.360Z,28.80
2022-10-21T11:56:35.205Z,28.77
2022-10-21T11:59:29.286Z,30.13
2022-10-21T12:02:17.097Z,29.80
2022-10-21T12:05:05.577Z,29.50
2022-10-21T12:08:18.244Z,29.43
2022-10-21T12:10:52.823Z,31.20
2022-10-21T12:13:25.600Z,32.20
2022-10-21T12:16:06.197Z,30.93
2022-10-21T12:18:44.971Z,29.83
2022-10-21T12:21:19.901Z,32.17
2022-10-21T12:23:55.989Z,29.47
2022-10-21T12:26:29.041Z,30.13
2022-10-21T12:29:03.680Z,30.33
2022-10-21T12:31:45.679Z,30.70
2022-10-21T12:34:16.822Z,29.10
2022-10-21T12:36:48.982Z,30.23
2022-10-21T12:39:51.609Z,28.77
2022-10-21T12:42:29.769Z,29.97
2022-10-21T12:44:57.973Z,30.60
2022-10-21T12:47:30.321Z,30.37
2022-10-21T12:50:18.140Z,30.63
2022-10-21T12:52:47.490Z,30.67
2022-10-21T12:55:23.483Z,30.83
2022-10-21T12:58:00.165Z,33.87
2022-10-21T13:00:54.096Z,35.23
2022-10-21T13:03:24.304Z,34.23
2022-10-21T13:06:06.000Z,36.47
2022-10-21T13:08:55.110Z,37.20
2022-10-21T13:11:40.281Z,38.33
2022-10-21T13:14:33.655Z,39.23
2022-10-21T13:17:49.503Z,40.77
2022-10-21T13:20:47.007Z,40.80
2022-10-21T13:23:41.841Z,39.80
2022-10-21T13:26:21.773Z,39.83
2022-10-21T13:29:10.421Z,42.60
2022-10-21T13:32:10.883Z,39.17
2022-10-21T13:35:22.601Z,41.07
2022-10-21T13:38:04.308Z,40.97
2022-10-21T13:40:40.406Z,41.80
2022-10-21T13:43:18.375Z,42.00
2022-10-21T13:45:50.099Z,41.70
2022-10-21T13:48:19.948Z,39.37
2022-10-21T13:50:49.852Z,40.13
2022-10-21T13:53:27.771Z,39.27
2022-10-21T13:56:03.415Z,40.33
2022-10-21T13:58:48.636Z,39.70
2022-10-21T14:01:20.308Z,38.97
2022-10-21T14:06:30.362Z,37.43
2022-10-21T14:09:04.236Z,41.90
2022-10-21T14:11:38.859Z,42.30
2022-10-21T14:14:11.008Z,37.10
2022-10-21T14:16:42.194Z,36.53
2022-10-21T14:19:16.786Z,36.27
2022-10-21T14:21:48.001Z,37.07
2022-10-21T14:24:36.159Z,35.60
2022-10-21T14:27:42.276Z,34.70
2022-10-21T14:30:18.458Z,35.13
2022-10-21T14:32:48.029Z,31.73
2022-10-21T14:35:26.785Z,34.37
2022-10-21T14:38:00.525Z,38.63
2022-10-21T14:40:32.891Z,35.23
2022-10-21T14:43:07.861Z,31.50
2022-10-21T14:45:39.067Z,32.60
2022-10-21T14:48:12.591Z,32.77
2022-10-21T14:50:42.583Z,32.20
2022-10-21T14:53:18.056Z,32.30
2022-10-21T14:55:48.597Z,34.73
2022-10-21T14:58:23.845Z,31.87
2022-10-21T15:00:56.731Z,32.10
2022-10-21T15:03:44.132Z,32.90
2022-10-21T15:06:15.022Z,33.53
2022-10-21T15:08:45.307Z,32.77
2022-10-21T15:11:23.611Z,32.60
2022-10-21T15:14:28.726Z,30.50
2022-10-21T15:17:06.424Z,35.60
2022-10-21T15:19:45.992Z,32.37
2022-10-21T15:22:26.280Z,34.63
2022-10-21T15:25:05.270Z,32.43
2022-10-21T15:28:04.073Z,13.83
2022-10-21T15:30:54.072Z,13.87
2022-10-21T15:36:47.651Z,15.10
2022-10-21T15:39:24.743Z,14.60
2022-10-21T15:42:15.217Z,14.47
2022-10-21T15:44:53.899Z,15.03
2022-10-21T15:47:24.180Z,13.97
2022-10-21T15:49:56.060Z,14.80
2022-10-21T15:52:26.646Z,14.10
2022-10-21T15:54:55.487Z,14.30
2022-10-21T15:57:24.573Z,13.40
2022-10-21T15:59:52.926Z,14.47
2022-10-21T16:02:21.468Z,14.20
2022-10-21T16:04:53.165Z,14.10
2022-10-21T16:07:25.010Z,13.30
2022-10-21T16:09:58.531Z,14.00
2022-10-21T16:12:37.161Z,13.90
2022-10-21T16:15:07.929Z,14.77
